sensor_id;sensor_type;location;lat;lon;timestamp;P1;durP1;ratioP1;P2;durP2;ratioP2
22711;SDS011;11523;50.390;8.072;2023-04-27T02:29:41;12.18;;;8.48;;
22711;SDS011;11523;50.390;8.072;2023-04-27T02:32:13;12.77;;;8.65;;
22711;SDS011;11523;50.390;8.072;2023-04-27T02:34:38;13.45;;;7.80;;
22711;SDS011;11523;50.390;8.072;2023-04-27T02:37:05;13.57;;;7.75;;
22711;SDS011;11523;50.390;8.072;2023-04-27T02:39:31;13.20;;;8.45;;
22711;SDS011;11523;50.390;8.072;2023-04-27T02:41:57;11.63;;;8.05;;
22711;SDS011;11523;50.390;8.072;2023-04-27T02:44:23;13.30;;;8.10;;
22711;SDS011;11523;50.390;8.072;2023-04-27T02:46:49;15.52;;;8.25;;
22711;SDS011;11523;50.390;8.072;2023-04-27T02:49:15;12.50;;;7.72;;
22711;SDS011;11523;50.390;8.072;2023-04-27T02:51:41;11.80;;;7.93;;
22711;SDS011;11523;50.390;8.072;2023-04-27T02:54:08;10.70;;;7.80;;
22711;SDS011;11523;50.390;8.072;2023-04-27T02:56:34;12.88;;;8.00;;
22711;SDS011;11523;50.390;8.072;2023-04-27T02:59:00;11.38;;;7.97;;
22711;SDS011;11523;50.390;8.072;2023-04-27T03:01:25;11.30;;;7.65;;
22711;SDS011;11523;50.390;8.072;2023-04-27T03:03:51;13.10;;;8.52;;
22711;SDS011;11523;50.390;8.072;2023-04-27T03:06:17;10.93;;;8.05;;
22711;SDS011;11523;50.390;8.072;2023-04-27T03:08:43;8.75;;;7.30;;
22711;SDS011;11523;50.390;8.072;2023-04-27T03:11:09;10.32;;;7.47;;
22711;SDS011;11523;50.390;8.072;2023-04-27T03:13:36;13.88;;;7.97;;
22711;SDS011;11523;50.390;8.072;2023-04-27T03:16:09;11.00;;;7.88;;
22711;SDS011;11523;50.390;8.072;2023-04-27T03:18:35;10.05;;;8.07;;
22711;SDS011;11523;50.390;8.072;2023-04-27T03:21:07;10.05;;;7.70;;
22711;SDS011;11523;50.390;8.072;2023-04-27T03:23:34;10.40;;;7.50;;
22711;SDS011;11523;50.390;8.072;2023-04-27T03:26:00;9.60;;;7.32;;
22711;SDS011;11523;50.390;8.072;2023-04-27T03:28:26;10.75;;;7.30;;
22711;SDS011;11523;50.390;8.072;2023-04-27T03:30:52;10.57;;;7.10;;
22711;SDS011;11523;50.390;8.072;2023-04-27T03:33:18;9.73;;;6.93;;
22711;SDS011;11523;50.390;8.072;2023-04-27T03:35:44;9.32;;;7.82;;
22711;SDS011;11523;50.390;8.072;2023-04-27T03:38:18;13.32;;;7.57;;
22711;SDS011;11523;50.390;8.072;2023-04-27T03:40:44;10.57;;;7.03;;
22711;SDS011;11523;50.390;8.072;2023-04-27T03:43:10;10.45;;;7.47;;
22711;SDS011;11523;50.390;8.072;2023-04-27T03:45:36;10.15;;;7.78;;
22711;SDS011;11523;50.390;8.072;2023-04-27T03:48:02;9.93;;;7.35;;
22711;SDS011;11523;50.390;8.072;2023-04-27T03:50:28;10.90;;;7.30;;
22711;SDS011;11523;50.390;8.072;2023-04-27T03:52:54;8.68;;;6.88;;
22711;SDS011;11523;50.390;8.072;2023-04-27T03:55:20;11.48;;;7.43;;
22711;SDS011;11523;50.390;8.072;2023-04-27T03:57:46;9.45;;;6.95;;
22711;SDS011;11523;50.390;8.072;2023-04-27T04:00:12;8.52;;;6.60;;
22711;SDS011;11523;50.390;8.072;2023-04-27T04:02:39;13.32;;;7.53;;
22711;SDS011;11523;50.390;8.072;2023-04-27T04:05:06;9.00;;;7.32;;
22711;SDS011;11523;50.390;8.072;2023-04-27T04:07:32;13.77;;;7.35;;
22711;SDS011;11523;50.390;8.072;2023-04-27T04:09:58;9.35;;;7.15;;
22711;SDS011;11523;50.390;8.072;2023-04-27T04:12:24;7.72;;;6.50;;
22711;SDS011;11523;50.390;8.072;2023-04-27T04:14:50;9.18;;;7.18;;
22711;SDS011;11523;50.390;8.072;2023-04-27T04:17:16;10.57;;;7.35;;
22711;SDS011;11523;50.390;8.072;2023-04-27T04:19:42;10.48;;;6.70;;
22711;SDS011;11523;50.390;8.072;2023-04-27T04:22:08;9.23;;;7.05;;
22711;SDS011;11523;50.390;8.072;2023-04-27T04:24:35;7.97;;;6.35;;
22711;SDS011;11523;50.390;8.072;2023-04-27T04:27:03;13.70;;;7.72;;
22711;SDS011;11523;50.390;8.072;2023-04-27T04:29:29;11.65;;;7.47;;
22711;SDS011;11523;50.390;8.072;2023-04-27T04:31:56;14.88;;;7.13;;
22711;SDS011;11523;50.390;8.072;2023-04-27T04:34:22;9.10;;;6.72;;
22711;SDS011;11523;50.390;8.072;2023-04-27T04:36:48;12.98;;;6.80;;
22711;SDS011;11523;50.390;8.072;2023-04-27T04:39:18;11.77;;;7.43;;
22711;SDS011;11523;50.390;8.072;2023-04-27T04:41:44;10.27;;;6.53;;
22711;SDS011;11523;50.390;8.072;2023-04-27T04:44:10;10.07;;;6.68;;
22711;SDS011;11523;50.390;8.072;2023-04-27T04:46:36;9.25;;;7.13;;
22711;SDS011;11523;50.390;8.072;2023-04-27T04:49:02;10.93;;;7.15;;
22711;SDS011;11523;50.390;8.072;2023-04-27T04:51:28;10.88;;;7.00;;
22711;SDS011;11523;50.390;8.072;2023-04-27T04:53:55;10.40;;;6.60;;
22711;SDS011;11523;50.390;8.072;2023-04-27T04:56:20;11.93;;;6.68;;
22711;SDS011;11523;50.390;8.072;2023-04-27T04:58:46;11.52;;;6.30;;
22711;SDS011;11523;50.390;8.072;2023-04-27T05:01:12;10.20;;;6.25;;
22711;SDS011;11523;50.390;8.072;2023-04-27T05:03:38;11.60;;;6.35;;
22711;SDS011;11523;50.390;8.072;2023-04-27T05:06:04;11.82;;;6.38;;
22711;SDS011;11523;50.390;8.072;2023-04-27T05:08:30;8.68;;;6.72;;
22711;SDS011;11523;50.390;8.072;2023-04-27T05:10:56;9.55;;;6.13;;
22711;SDS011;11523;50.390;8.072;2023-04-27T05:13:22;9.45;;;6.47;;
22711;SDS011;11523;50.390;8.072;2023-04-27T05:15:49;7.43;;;6.15;;
22711;SDS011;11523;50.390;8.072;2023-04-27T05:18:15;9.80;;;6.18;;
22711;SDS011;11523;50.390;8.072;2023-04-27T05:20:41;11.77;;;6.97;;
22711;SDS011;11523;50.390;8.072;2023-04-27T05:23:07;10.90;;;6.70;;
22711;SDS011;11523;50.390;8.072;2023-04-27T05:25:33;13.60;;;6.55;;
22711;SDS011;11523;50.390;8.072;2023-04-27T05:28:05;15.18;;;6.30;;
22711;SDS011;11523;50.390;8.072;2023-04-27T05:30:31;10.88;;;6.22;;
22711;SDS011;11523;50.390;8.072;2023-04-27T05:32:57;11.95;;;6.75;;
22711;SDS011;11523;50.390;8.072;2023-04-27T05:35:23;10.20;;;6.10;;
22711;SDS011;11523;50.390;8.072;2023-04-27T05:37:49;9.70;;;6.82;;
22711;SDS011;11523;50.390;8.072;2023-04-27T05:40:15;8.45;;;6.43;;
22711;SDS011;11523;50.390;8.072;2023-04-27T05:42:41;11.35;;;7.00;;
22711;SDS011;11523;50.390;8.072;2023-04-27T05:45:07;13.27;;;6.90;;
22711;SDS011;11523;50.390;8.072;2023-04-27T05:47:33;19.77;;;7.68;;
22711;SDS011;11523;50.390;8.072;2023-04-27T05:49:59;12.60;;;6.60;;
22711;SDS011;11523;50.390;8.072;2023-04-27T05:52:24;10.65;;;6.53;;
22711;SDS011;11523;50.390;8.072;2023-04-27T05:54:54;12.63;;;7.10;;
22711;SDS011;11523;50.390;8.072;2023-04-27T05:57:20;14.05;;;7.75;;
22711;SDS011;11523;50.390;8.072;2023-04-27T05:59:46;10.32;;;7.70;;
22711;SDS011;11523;50.390;8.072;2023-04-27T06:02:12;13.68;;;6.65;;
22711;SDS011;11523;50.390;8.072;2023-04-27T06:04:38;16.48;;;7.38;;
22711;SDS011;11523;50.390;8.072;2023-04-27T06:07:08;12.38;;;7.13;;
22711;SDS011;11523;50.390;8.072;2023-04-27T06:09:34;17.83;;;7.63;;
22711;SDS011;11523;50.390;8.072;2023-04-27T06:12:00;11.95;;;8.07;;
22711;SDS011;11523;50.390;8.072;2023-04-27T06:14:28;10.50;;;7.53;;
22711;SDS011;11523;50.390;8.072;2023-04-27T06:16:54;11.75;;;8.48;;
22711;SDS011;11523;50.390;8.072;2023-04-27T06:19:20;13.90;;;7.72;;
22711;SDS011;11523;50.390;8.072;2023-04-27T06:21:46;13.57;;;7.55;;
22711;SDS011;11523;50.390;8.072;2023-04-27T06:24:12;9.57;;;8.23;;
22711;SDS011;11523;50.390;8.072;2023-04-27T06:26:38;14.68;;;8.40;;
22711;SDS011;11523;50.390;8.072;2023-04-27T06:29:03;17.05;;;8.20;;
22711;SDS011;11523;50.390;8.072;2023-04-27T06:31:32;12.80;;;8.30;;
22711;SDS011;11523;50.390;8.072;2023-04-27T06:33:58;16.20;;;8.00;;
22711;SDS011;11523;50.390;8.072;2023-04-27T06:36:24;11.15;;;8.13;;
22711;SDS011;11523;50.390;8.072;2023-04-27T06:38:53;14.90;;;7.95;;
22711;SDS011;11523;50.390;8.072;2023-04-27T06:41:20;11.38;;;8.48;;
22711;SDS011;11523;50.390;8.072;2023-04-27T06:43:46;11.80;;;8.38;;
22711;SDS011;11523;50.390;8.072;2023-04-27T06:46:12;10.02;;;7.40;;
22711;SDS011;11523;50.390;8.072;2023-04-27T06:48:38;13.38;;;7.85;;
22711;SDS011;11523;50.390;8.072;2023-04-27T06:51:04;12.10;;;7.53;;
22711;SDS011;11523;50.390;8.072;2023-04-27T06:53:30;10.10;;;7.60;;
22711;SDS011;11523;50.390;8.072;2023-04-27T06:55:56;10.43;;;8.00;;
22711;SDS011;11523;50.390;8.072;2023-04-27T06:58:22;12.30;;;8.07;;
22711;SDS011;11523;50.390;8.072;2023-04-27T07:00:48;17.30;;;8.40;;
22711;SDS011;11523;50.390;8.072;2023-04-27T07:03:14;12.80;;;8.05;;
22711;SDS011;11523;50.390;8.072;2023-04-27T07:05:40;11.65;;;7.80;;
22711;SDS011;11523;50.390;8.072;2023-04-27T07:08:06;15.07;;;8.30;;
22711;SDS011;11523;50.390;8.072;2023-04-27T07:10:32;15.07;;;8.23;;
22711;SDS011;11523;50.390;8.072;2023-04-27T07:12:58;11.85;;;7.65;;
22711;SDS011;11523;50.390;8.072;2023-04-27T07:15:24;13.15;;;8.30;;
22711;SDS011;11523;50.390;8.072;2023-04-27T07:17:50;10.88;;;7.35;;
22711;SDS011;11523;50.390;8.072;2023-04-27T07:20:20;13.45;;;7.55;;
22711;SDS011;11523;50.390;8.072;2023-04-27T07:22:45;10.00;;;7.82;;
22711;SDS011;11523;50.390;8.072;2023-04-27T07:25:11;10.38;;;7.40;;
22711;SDS011;11523;50.390;8.072;2023-04-27T07:27:37;12.20;;;7.55;;
22711;SDS011;11523;50.390;8.072;2023-04-27T07:30:04;11.73;;;7.47;;
22711;SDS011;11523;50.390;8.072;2023-04-27T07:32:33;10.32;;;7.13;;
22711;SDS011;11523;50.390;8.072;2023-04-27T07:34:59;10.43;;;7.88;;
22711;SDS011;11523;50.390;8.072;2023-04-27T07:37:25;12.00;;;7.22;;
22711;SDS011;11523;50.390;8.072;2023-04-27T07:39:51;11.63;;;7.88;;
22711;SDS011;11523;50.390;8.072;2023-04-27T07:42:17;13.05;;;7.75;;
22711;SDS011;11523;50.390;8.072;2023-04-27T07:44:43;11.05;;;6.65;;
22711;SDS011;11523;50.390;8.072;2023-04-27T07:47:09;9.48;;;7.18;;
22711;SDS011;11523;50.390;8.072;2023-04-27T07:49:36;11.23;;;7.55;;
22711;SDS011;11523;50.390;8.072;2023-04-27T07:52:04;11.35;;;7.05;;
22711;SDS011;11523;50.390;8.072;2023-04-27T07:54:30;10.38;;;7.65;;
22711;SDS011;11523;50.390;8.072;2023-04-27T07:57:09;13.32;;;7.03;;
22711;SDS011;11523;50.390;8.072;2023-04-27T07:59:36;12.48;;;7.10;;
22711;SDS011;11523;50.390;8.072;2023-04-27T08:02:01;11.55;;;7.20;;
22711;SDS011;11523;50.390;8.072;2023-04-27T08:04:27;9.88;;;6.80;;
22711;SDS011;11523;50.390;8.072;2023-04-27T08:06:53;11.70;;;7.07;;
22711;SDS011;11523;50.390;8.072;2023-04-27T08:09:19;11.45;;;6.85;;
22711;SDS011;11523;50.390;8.072;2023-04-27T08:11:45;10.07;;;6.20;;
22711;SDS011;11523;50.390;8.072;2023-04-27T08:14:11;10.45;;;7.50;;
22711;SDS011;11523;50.390;8.072;2023-04-27T08:16:41;11.38;;;6.80;;
22711;SDS011;11523;50.390;8.072;2023-04-27T08:19:07;8.73;;;6.00;;
22711;SDS011;11523;50.390;8.072;2023-04-27T08:21:40;8.32;;;6.10;;
22711;SDS011;11523;50.390;8.072;2023-04-27T08:24:06;9.68;;;7.07;;
22711;SDS011;11523;50.390;8.072;2023-04-27T08:26:32;10.52;;;6.82;;
22711;SDS011;11523;50.390;8.072;2023-04-27T08:28:59;12.38;;;6.72;;
22711;SDS011;11523;50.390;8.072;2023-04-27T08:31:25;11.43;;;5.90;;
22711;SDS011;11523;50.390;8.072;2023-04-27T08:33:51;11.65;;;6.63;;
22711;SDS011;11523;50.390;8.072;2023-04-27T08:36:18;8.85;;;5.95;;
22711;SDS011;11523;50.390;8.072;2023-04-27T08:38:44;10.38;;;6.40;;
22711;SDS011;11523;50.390;8.072;2023-04-27T08:41:10;11.35;;;6.15;;
22711;SDS011;11523;50.390;8.072;2023-04-27T08:43:36;10.40;;;6.97;;
22711;SDS011;11523;50.390;8.072;2023-04-27T08:46:02;9.25;;;6.95;;
22711;SDS011;11523;50.390;8.072;2023-04-27T08:48:28;8.48;;;7.05;;
22711;SDS011;11523;50.390;8.072;2023-04-27T08:50:55;9.18;;;6.65;;
22711;SDS011;11523;50.390;8.072;2023-04-27T08:53:21;10.20;;;6.28;;
22711;SDS011;11523;50.390;8.072;2023-04-27T08:55:50;9.02;;;6.35;;
22711;SDS011;11523;50.390;8.072;2023-04-27T08:58:17;13.07;;;6.20;;
22711;SDS011;11523;50.390;8.072;2023-04-27T09:00:43;10.63;;;6.95;;
22711;SDS011;11523;50.390;8.072;2023-04-27T09:03:22;9.05;;;6.20;;
22711;SDS011;11523;50.390;8.072;2023-04-27T09:05:49;12.77;;;5.88;;
22711;SDS011;11523;50.390;8.072;2023-04-27T09:08:15;13.02;;;6.65;;
22711;SDS011;11523;50.390;8.072;2023-04-27T09:10:48;11.00;;;6.97;;
22711;SDS011;11523;50.390;8.072;2023-04-27T09:13:14;13.63;;;7.32;;
22711;SDS011;11523;50.390;8.072;2023-04-27T09:15:45;10.98;;;6.30;;
22711;SDS011;11523;50.390;8.072;2023-04-27T09:18:18;9.23;;;6.28;;
22711;SDS011;11523;50.390;8.072;2023-04-27T09:20:51;9.70;;;6.13;;
22711;SDS011;11523;50.390;8.072;2023-04-27T09:23:31;10.70;;;6.15;;
22711;SDS011;11523;50.390;8.072;2023-04-27T09:25:58;10.30;;;6.30;;
22711;SDS011;11523;50.390;8.072;2023-04-27T09:28:25;15.15;;;5.70;;
22711;SDS011;11523;50.390;8.072;2023-04-27T09:30:55;13.20;;;6.15;;
22711;SDS011;11523;50.390;8.072;2023-04-27T09:33:25;11.27;;;6.35;;
22711;SDS011;11523;50.390;8.072;2023-04-27T09:35:51;10.68;;;5.95;;
22711;SDS011;11523;50.390;8.072;2023-04-27T09:38:18;10.80;;;6.40;;
22711;SDS011;11523;50.390;8.072;2023-04-27T09:40:44;10.57;;;6.55;;
22711;SDS011;11523;50.390;8.072;2023-04-27T09:43:10;18.13;;;7.68;;
22711;SDS011;11523;50.390;8.072;2023-04-27T09:45:37;12.98;;;6.68;;
22711;SDS011;11523;50.390;8.072;2023-04-27T09:48:03;9.60;;;6.90;;
22711;SDS011;11523;50.390;8.072;2023-04-27T09:50:29;9.90;;;6.40;;
22711;SDS011;11523;50.390;8.072;2023-04-27T09:52:55;11.75;;;6.18;;
22711;SDS011;11523;50.390;8.072;2023-04-27T09:55:27;9.13;;;5.93;;
22711;SDS011;11523;50.390;8.072;2023-04-27T10:08:52;8.82;;;5.72;;
22711;SDS011;11523;50.390;8.072;2023-04-27T10:11:18;9.57;;;5.10;;
22711;SDS011;11523;50.390;8.072;2023-04-27T10:13:50;10.80;;;4.82;;
22711;SDS011;11523;50.390;8.072;2023-04-27T10:16:18;8.75;;;4.43;;
22711;SDS011;11523;50.390;8.072;2023-04-27T10:18:50;7.50;;;4.65;;
22711;SDS011;11523;50.390;8.072;2023-04-27T10:21:17;11.18;;;5.03;;
22711;SDS011;11523;50.390;8.072;2023-04-27T10:23:47;9.88;;;5.20;;
22711;SDS011;11523;50.390;8.072;2023-04-27T10:26:23;9.82;;;5.05;;
22711;SDS011;11523;50.390;8.072;2023-04-27T10:29:05;7.82;;;5.28;;
22711;SDS011;11523;50.390;8.072;2023-04-27T10:31:32;9.10;;;5.93;;
22711;SDS011;11523;50.390;8.072;2023-04-27T10:34:08;10.35;;;5.72;;
22711;SDS011;11523;50.390;8.072;2023-04-27T10:36:35;10.90;;;5.07;;
22711;SDS011;11523;50.390;8.072;2023-04-27T10:39:01;8.82;;;5.25;;
22711;SDS011;11523;50.390;8.072;2023-04-27T10:41:35;7.78;;;5.40;;
22711;SDS011;11523;50.390;8.072;2023-04-27T10:44:23;7.93;;;5.18;;
22711;SDS011;11523;50.390;8.072;2023-04-27T10:46:51;10.40;;;4.88;;
22711;SDS011;11523;50.390;8.072;2023-04-27T10:49:18;10.95;;;5.00;;
22711;SDS011;11523;50.390;8.072;2023-04-27T10:51:44;13.13;;;5.13;;
22711;SDS011;11523;50.390;8.072;2023-04-27T10:54:10;10.88;;;5.15;;
22711;SDS011;11523;50.390;8.072;2023-04-27T10:56:36;6.32;;;4.80;;
22711;SDS011;11523;50.390;8.072;2023-04-27T10:59:03;9.52;;;4.85;;
22711;SDS011;11523;50.390;8.072;2023-04-27T11:01:29;9.07;;;5.60;;
22711;SDS011;11523;50.390;8.072;2023-04-27T11:03:56;8.52;;;5.00;;
22711;SDS011;11523;50.390;8.072;2023-04-27T11:06:22;9.00;;;4.75;;
22711;SDS011;11523;50.390;8.072;2023-04-27T11:08:48;10.65;;;5.25;;
22711;SDS011;11523;50.390;8.072;2023-04-27T11:11:14;8.68;;;5.47;;
22711;SDS011;11523;50.390;8.072;2023-04-27T11:13:42;8.65;;;5.22;;
22711;SDS011;11523;50.390;8.072;2023-04-27T11:16:08;8.10;;;5.13;;
22711;SDS011;11523;50.390;8.072;2023-04-27T11:18:35;7.93;;;5.22;;
22711;SDS011;11523;50.390;8.072;2023-04-27T11:21:14;8.48;;;5.75;;
22711;SDS011;11523;50.390;8.072;2023-04-27T11:23:41;10.05;;;6.00;;
22711;SDS011;11523;50.390;8.072;2023-04-27T11:26:10;9.38;;;5.60;;
22711;SDS011;11523;50.390;8.072;2023-04-27T11:28:38;8.98;;;5.38;;
22711;SDS011;11523;50.390;8.072;2023-04-27T11:31:04;7.03;;;4.47;;
22711;SDS011;11523;50.390;8.072;2023-04-27T11:33:31;7.88;;;5.28;;
22711;SDS011;11523;50.390;8.072;2023-04-27T11:35:57;7.88;;;5.22;;
22711;SDS011;11523;50.390;8.072;2023-04-27T11:38:23;7.97;;;5.32;;
22711;SDS011;11523;50.390;8.072;2023-04-27T11:41:00;6.35;;;4.32;;
22711;SDS011;11523;50.390;8.072;2023-04-27T11:43:26;12.85;;;5.15;;
22711;SDS011;11523;50.390;8.072;2023-04-27T11:45:53;9.00;;;5.38;;
22711;SDS011;11523;50.390;8.072;2023-04-27T11:48:21;8.77;;;5.60;;
22711;SDS011;11523;50.390;8.072;2023-04-27T11:50:47;11.75;;;5.07;;
22711;SDS011;11523;50.390;8.072;2023-04-27T11:53:14;7.22;;;5.25;;
22711;SDS011;11523;50.390;8.072;2023-04-27T11:55:40;9.63;;;4.88;;
22711;SDS011;11523;50.390;8.072;2023-04-27T11:58:13;10.02;;;4.80;;
22711;SDS011;11523;50.390;8.072;2023-04-27T12:00:40;9.75;;;5.40;;
22711;SDS011;11523;50.390;8.072;2023-04-27T12:03:06;10.15;;;5.05;;
22711;SDS011;11523;50.390;8.072;2023-04-27T12:05:32;10.98;;;5.60;;
22711;SDS011;11523;50.390;8.072;2023-04-27T12:07:58;10.65;;;5.35;;
22711;SDS011;11523;50.390;8.072;2023-04-27T12:10:24;7.28;;;4.47;;
22711;SDS011;11523;50.390;8.072;2023-04-27T12:12:50;8.75;;;4.97;;
22711;SDS011;11523;50.390;8.072;2023-04-27T12:15:16;9.77;;;4.88;;
22711;SDS011;11523;50.390;8.072;2023-04-27T12:17:42;9.23;;;5.05;;
22711;SDS011;11523;50.390;8.072;2023-04-27T12:20:08;10.05;;;5.25;;
22711;SDS011;11523;50.390;8.072;2023-04-27T12:22:34;8.88;;;4.85;;
22711;SDS011;11523;50.390;8.072;2023-04-27T12:25:01;9.20;;;4.93;;
22711;SDS011;11523;50.390;8.072;2023-04-27T12:27:27;8.93;;;5.65;;
22711;SDS011;11523;50.390;8.072;2023-04-27T12:29:53;9.52;;;5.57;;
22711;SDS011;11523;50.390;8.072;2023-04-27T12:32:19;8.63;;;5.30;;
22711;SDS011;11523;50.390;8.072;2023-04-27T12:34:45;8.95;;;5.60;;
22711;SDS011;11523;50.390;8.072;2023-04-27T12:37:11;8.75;;;5.45;;
22711;SDS011;11523;50.390;8.072;2023-04-27T12:39:37;12.80;;;5.10;;
22711;SDS011;11523;50.390;8.072;2023-04-27T12:42:03;9.70;;;5.22;;
22711;SDS011;11523;50.390;8.072;2023-04-27T12:44:29;7.80;;;4.95;;
22711;SDS011;11523;50.390;8.072;2023-04-27T12:46:55;8.80;;;5.55;;
22711;SDS011;11523;50.390;8.072;2023-04-27T12:49:21;10.25;;;5.38;;
22711;SDS011;11523;50.390;8.072;2023-04-27T12:51:47;7.57;;;5.13;;
22711;SDS011;11523;50.390;8.072;2023-04-27T12:54:15;7.50;;;4.80;;
22711;SDS011;11523;50.390;8.072;2023-04-27T12:56:41;10.13;;;5.28;;
22711;SDS011;11523;50.390;8.072;2023-04-27T12:59:07;10.02;;;5.35;;
22711;SDS011;11523;50.390;8.072;2023-04-27T13:01:33;10.32;;;4.85;;
22711;SDS011;11523;50.390;8.072;2023-04-27T13:04:02;7.43;;;5.00;;
22711;SDS011;11523;50.390;8.072;2023-04-27T13:06:28;9.02;;;5.25;;
22711;SDS011;11523;50.390;8.072;2023-04-27T13:08:55;8.23;;;4.90;;
22711;SDS011;11523;50.390;8.072;2023-04-27T13:11:25;11.30;;;5.15;;
22711;SDS011;11523;50.390;8.072;2023-04-27T13:13:51;7.63;;;4.45;;
22711;SDS011;11523;50.390;8.072;2023-04-27T13:16:18;7.95;;;4.82;;
22711;SDS011;11523;50.390;8.072;2023-04-27T13:18:46;13.23;;;5.57;;
22711;SDS011;11523;50.390;8.072;2023-04-27T13:21:14;7.63;;;5.00;;
22711;SDS011;11523;50.390;8.072;2023-04-27T13:23:40;9.63;;;4.90;;
22711;SDS011;11523;50.390;8.072;2023-04-27T13:26:06;8.93;;;4.63;;
22711;SDS011;11523;50.390;8.072;2023-04-27T13:28:39;9.48;;;4.38;;
22711;SDS011;11523;50.390;8.072;2023-04-27T13:31:05;7.22;;;4.45;;
22711;SDS011;11523;50.390;8.072;2023-04-27T13:33:31;7.47;;;4.75;;
22711;SDS011;11523;50.390;8.072;2023-04-27T13:35:57;7.47;;;4.43;;
22711;SDS011;11523;50.390;8.072;2023-04-27T13:38:26;9.13;;;4.40;;
22711;SDS011;11523;50.390;8.072;2023-04-27T13:40:52;7.28;;;3.83;;
22711;SDS011;11523;50.390;8.072;2023-04-27T13:43:18;6.78;;;4.57;;
22711;SDS011;11523;50.390;8.072;2023-04-27T13:45:44;7.63;;;4.30;;
22711;SDS011;11523;50.390;8.072;2023-04-27T13:48:10;9.48;;;4.75;;
22711;SDS011;11523;50.390;8.072;2023-04-27T13:50:36;6.72;;;3.90;;
22711;SDS011;11523;50.390;8.072;2023-04-27T13:53:02;7.88;;;4.20;;
22711;SDS011;11523;50.390;8.072;2023-04-27T13:55:28;6.80;;;4.10;;
22711;SDS011;11523;50.390;8.072;2023-04-27T13:57:54;8.75;;;4.00;;
22711;SDS011;11523;50.390;8.072;2023-04-27T14:00:20;7.50;;;3.90;;
22711;SDS011;11523;50.390;8.072;2023-04-27T14:02:46;6.32;;;4.22;;
22711;SDS011;11523;50.390;8.072;2023-04-27T14:05:12;6.05;;;4.40;;
22711;SDS011;11523;50.390;8.072;2023-04-27T14:07:38;6.68;;;4.20;;
22711;SDS011;11523;50.390;8.072;2023-04-27T14:10:04;5.65;;;4.30;;
22711;SDS011;11523;50.390;8.072;2023-04-27T14:12:38;6.47;;;4.40;;
22711;SDS011;11523;50.390;8.072;2023-04-27T14:15:05;5.15;;;4.05;;
22711;SDS011;11523;50.390;8.072;2023-04-27T14:17:31;6.72;;;4.00;;
22711;SDS011;11523;50.390;8.072;2023-04-27T14:19:57;7.00;;;3.95;;
22711;SDS011;11523;50.390;8.072;2023-04-27T14:22:23;5.93;;;4.25;;
22711;SDS011;11523;50.390;8.072;2023-04-27T14:24:50;7.80;;;4.35;;
22711;SDS011;11523;50.390;8.072;2023-04-27T14:27:16;9.23;;;4.70;;
22711;SDS011;11523;50.390;8.072;2023-04-27T14:29:42;7.18;;;4.03;;
22711;SDS011;11523;50.390;8.072;2023-04-27T14:32:08;9.07;;;4.35;;
22711;SDS011;11523;50.390;8.072;2023-04-27T14:34:34;8.43;;;3.78;;
22711;SDS011;11523;50.390;8.072;2023-04-27T14:37:00;5.90;;;4.07;;
22711;SDS011;11523;50.390;8.072;2023-04-27T14:39:26;10.55;;;4.65;;
22711;SDS011;11523;50.390;8.072;2023-04-27T14:41:52;6.30;;;4.15;;
22711;SDS011;11523;50.390;8.072;2023-04-27T14:44:18;10.57;;;4.45;;
22711;SDS011;11523;50.390;8.072;2023-04-27T14:46:44;6.95;;;4.65;;
22711;SDS011;11523;50.390;8.072;2023-04-27T14:49:10;8.15;;;4.68;;
22711;SDS011;11523;50.390;8.072;2023-04-27T14:51:36;9.68;;;4.50;;
22711;SDS011;11523;50.390;8.072;2023-04-27T14:54:02;7.28;;;4.75;;
22711;SDS011;11523;50.390;8.072;2023-04-27T14:56:28;7.78;;;3.92;;
22711;SDS011;11523;50.390;8.072;2023-04-27T14:58:54;8.98;;;4.15;;
22711;SDS011;11523;50.390;8.072;2023-04-27T15:01:20;8.68;;;4.30;;
22711;SDS011;11523;50.390;8.072;2023-04-27T15:03:46;5.25;;;4.35;;
22711;SDS011;11523;50.390;8.072;2023-04-27T15:06:12;7.53;;;4.95;;
22711;SDS011;11523;50.390;8.072;2023-04-27T15:08:38;7.15;;;3.83;;
22711;SDS011;11523;50.390;8.072;2023-04-27T15:11:04;8.45;;;4.25;;
22711;SDS011;11523;50.390;8.072;2023-04-27T15:13:30;6.05;;;3.92;;
22711;SDS011;11523;50.390;8.072;2023-04-27T15:15:57;6.47;;;4.45;;
22711;SDS011;11523;50.390;8.072;2023-04-27T15:18:24;6.63;;;4.38;;
22711;SDS011;11523;50.390;8.072;2023-04-27T15:20:51;6.55;;;3.75;;
22711;SDS011;11523;50.390;8.072;2023-04-27T15:23:17;5.78;;;4.00;;
22711;SDS011;11523;50.390;8.072;2023-04-27T15:25:44;11.43;;;4.78;;
22711;SDS011;11523;50.390;8.072;2023-04-27T15:28:11;9.55;;;5.15;;
22711;SDS011;11523;50.390;8.072;2023-04-27T15:30:37;9.98;;;4.95;;
22711;SDS011;11523;50.390;8.072;2023-04-27T15:33:03;6.38;;;4.82;;
22711;SDS011;11523;50.390;8.072;2023-04-27T15:35:28;10.13;;;5.22;;
22711;SDS011;11523;50.390;8.072;2023-04-27T15:37:55;8.85;;;4.25;;
22711;SDS011;11523;50.390;8.072;2023-04-27T15:40:21;8.63;;;4.63;;
22711;SDS011;11523;50.390;8.072;2023-04-27T15:42:47;11.45;;;4.72;;
22711;SDS011;11523;50.390;8.072;2023-04-27T15:45:13;10.88;;;4.70;;
22711;SDS011;11523;50.390;8.072;2023-04-27T15:47:39;9.25;;;4.72;;
22711;SDS011;11523;50.390;8.072;2023-04-27T15:50:05;6.88;;;4.63;;
22711;SDS011;11523;50.390;8.072;2023-04-27T15:52:31;7.10;;;3.67;;
22711;SDS011;11523;50.390;8.072;2023-04-27T15:54:58;6.72;;;4.47;;
22711;SDS011;11523;50.390;8.072;2023-04-27T15:57:24;7.75;;;4.60;;
22711;SDS011;11523;50.390;8.072;2023-04-27T15:59:50;7.20;;;4.65;;
22711;SDS011;11523;50.390;8.072;2023-04-27T16:02:16;6.00;;;4.00;;
22711;SDS011;11523;50.390;8.072;2023-04-27T16:04:42;9.95;;;4.55;;
22711;SDS011;11523;50.390;8.072;2023-04-27T16:07:08;10.32;;;4.38;;
22711;SDS011;11523;50.390;8.072;2023-04-27T16:09:34;6.40;;;4.20;;
22711;SDS011;11523;50.390;8.072;2023-04-27T16:12:00;8.55;;;3.92;;
22711;SDS011;11523;50.390;8.072;2023-04-27T16:14:27;7.63;;;3.80;;
22711;SDS011;11523;50.390;8.072;2023-04-27T16:16:53;6.28;;;3.47;;
22711;SDS011;11523;50.390;8.072;2023-04-27T16:19:23;5.80;;;3.72;;
22711;SDS011;11523;50.390;8.072;2023-04-27T16:21:49;8.85;;;4.47;;
22711;SDS011;11523;50.390;8.072;2023-04-27T16:24:15;8.20;;;3.88;;
22711;SDS011;11523;50.390;8.072;2023-04-27T16:26:43;10.35;;;4.05;;
22711;SDS011;11523;50.390;8.072;2023-04-27T16:29:09;8.90;;;4.20;;
22711;SDS011;11523;50.390;8.072;2023-04-27T16:31:35;6.95;;;3.70;;
22711;SDS011;11523;50.390;8.072;2023-04-27T16:34:01;7.35;;;4.03;;
22711;SDS011;11523;50.390;8.072;2023-04-27T16:36:27;5.65;;;3.72;;
22711;SDS011;11523;50.390;8.072;2023-04-27T16:38:53;6.25;;;3.42;;
22711;SDS011;11523;50.390;8.072;2023-04-27T16:41:19;9.95;;;3.47;;
22711;SDS011;11523;50.390;8.072;2023-04-27T16:43:46;6.50;;;3.30;;
22711;SDS011;11523;50.390;8.072;2023-04-27T16:46:12;6.60;;;3.28;;
22711;SDS011;11523;50.390;8.072;2023-04-27T16:48:39;6.85;;;3.25;;
22711;SDS011;11523;50.390;8.072;2023-04-27T16:51:05;5.90;;;3.25;;
22711;SDS011;11523;50.390;8.072;2023-04-27T16:53:31;9.05;;;2.95;;
22711;SDS011;11523;50.390;8.072;2023-04-27T16:56:00;6.60;;;2.90;;
22711;SDS011;11523;50.390;8.072;2023-04-27T16:58:27;8.52;;;2.97;;
22711;SDS011;11523;50.390;8.072;2023-04-27T17:00:53;6.32;;;3.13;;
22711;SDS011;11523;50.390;8.072;2023-04-27T17:03:19;6.05;;;3.30;;
22711;SDS011;11523;50.390;8.072;2023-04-27T17:05:45;6.95;;;3.08;;
22711;SDS011;11523;50.390;8.072;2023-04-27T17:08:11;8.45;;;3.28;;
22711;SDS011;11523;50.390;8.072;2023-04-27T17:10:37;7.68;;;3.30;;
22711;SDS011;11523;50.390;8.072;2023-04-27T17:13:04;5.90;;;2.75;;
22711;SDS011;11523;50.390;8.072;2023-04-27T17:15:31;8.82;;;3.10;;
22711;SDS011;11523;50.390;8.072;2023-04-27T17:17:57;6.82;;;2.92;;